Terminal Aerodrome Forecast
Issued by NWS Jackson, MS

Home | Current Version | Previous Version | Text Only | Print | Product List | Glossary On
Versions: 1 2 3 4 5 6 7 8 9 10 11 12 13 14
000
FTUS44 KJAN 270527
TAFMEI
TAF
KMEI 270527Z 2706/2806 14007KT P6SM SCT100
     FM271100 15006KT P6SM VCSH SCT015 OVC050
     FM271400 14006KT 5SM SHRA BR VCTS BKN015CB OVC020
     FM271900 14008KT 6SM -SHRA BR SCT012 BKN030
     FM272100 14008KT P6SM SCT030 BKN100
     FM280000 16008KT 4SM BR BKN010=

USA.gov is the U.S. government's official web portal to all federal, state and local government web resources and services.